Time;durP1;ratioP1;P1;durP2;ratioP2;P2;SDS_P1;SDS_P2;PMS_P1;PMS_P2;Temp;Humidity;BMP_temperature;BMP_pressure;BME280_temperature;BME280_humidity;BME280_pressure;Samples;Min_cycle;Max_cycle;Signal;HPM_P1;HPM_P2
2022/06/14 00:01:28;;;;;;;;;;;;;;;20.76;47.15;99343.78;4499491;31;35118;-84
2022/06/14 00:03:57;;;;;;;;;;;;;;;20.30;48.57;99363.31;4499196;31;33938;-91
2022/06/14 00:06:26;;;;;;;;;;;;;;;20.53;48.09;99351.38;4499293;31;34421;-85
2022/06/14 00:08:53;;;;;;;;;;;;;;;20.21;49.29;99352.13;4499274;31;33540;-85
2022/06/14 00:11:24;;;;;;;;;;;;;;;19.96;49.66;99357.94;4499463;31;34295;-89
2022/06/14 00:13:52;;;;;;;;;;;;;;;20.26;48.88;99364.28;4499293;31;34362;-86
2022/06/14 00:16:19;;;;;;;;;;;;;;;20.05;49.52;99356.91;4499357;31;34021;-86
2022/06/14 00:18:47;;;;;;;;;;;;;;;19.53;50.91;99357.97;4499448;31;33808;-89
2022/06/14 00:21:14;;;;;;;;;;;;;;;20.05;49.48;99356.91;4499225;31;34093;-89
2022/06/14 00:23:42;;;;;;;;;;;;;;;19.97;49.81;99356.22;4498825;31;34403;-85
2022/06/14 00:26:11;;;;;;;;;;;;;;;20.11;49.93;99348.84;4499109;31;34013;-89
2022/06/14 00:28:39;;;;;;;;;;;;;;;18.53;53.96;99353.69;4498058;31;33960;-84
2022/06/14 00:31:10;;;;;;;;;;;;;;;18.90;53.23;99365.31;4497756;31;34049;-90
2022/06/14 00:33:37;;;;;;;;;;;;;;;18.86;53.19;99374.13;4498968;31;35409;-89
2022/06/14 00:36:06;;;;;;;;;;;;;;;18.81;53.58;99377.75;4499084;31;34081;-85
2022/06/14 00:38:33;;;;;;;;;;;;;;;19.27;52.51;99374.28;4497778;31;34377;-85
2022/06/14 00:41:01;;;;;;;;;;;;;;;19.89;50.93;99383.56;4499217;31;33966;-88
2022/06/14 00:43:29;;;;;;;;;;;;;;;20.03;50.14;99388.50;4499431;31;33884;-86
2022/06/14 00:46:13;;;;;;;;;;;;;;;20.46;49.14;99382.25;4497231;31;33951;-89
2022/06/14 00:48:42;;;;;;;;;;;;;;;20.37;49.11;99391.22;4498929;31;33603;-85
2022/06/14 00:51:14;;;;;;;;;;;;;;;20.68;48.65;99400.19;4497778;31;35087;-89
2022/06/14 00:53:42;;;;;;;;;;;;;;;20.53;48.67;99406.69;4498903;31;32903;-85
2022/06/14 00:56:13;;;;;;;;;;;;;;;20.56;48.79;99410.12;4497869;31;33942;-86
2022/06/14 00:58:42;;;;;;;;;;;;;;;19.62;50.81;99407.78;4498369;31;34025;-86
2022/06/14 01:01:14;;;;;;;;;;;;;;;20.25;49.54;99409.94;4492303;31;34273;-89
2022/06/14 01:03:51;;;;;;;;;;;;;;;19.66;50.89;99412.97;4498392;31;34063;-89
2022/06/14 01:06:27;;;;;;;;;;;;;;;19.77;50.52;99415.34;4494112;31;34449;-85
2022/06/14 01:08:56;;;;;;;;;;;;;;;19.69;51.13;99415.50;4507684;31;33714;-88
2022/06/14 01:11:28;;;;;;;;;;;;;;;19.69;51.00;99415.50;4497424;31;33995;-84
2022/06/14 01:13:56;;;;;;;;;;;;;;;20.73;48.06;99412.38;4497297;31;34867;-90
2022/06/14 01:16:24;;;;;;;;;;;;;;;21.08;47.29;99408.81;4498620;31;34278;-85
2022/06/14 01:18:52;;;;;;;;;;;;;;;20.75;47.70;99421.06;4498837;31;34784;-85
2022/06/14 01:21:19;;;;;;;;;;;;;;;21.06;46.89;99415.91;4498823;31;34054;-92
2022/06/14 01:23:46;;;;;;;;;;;;;;;21.18;46.63;99420.00;4498398;31;34084;-89
2022/06/14 01:26:16;;;;;;;;;;;;;;;20.81;47.37;99430.63;4498498;31;34581;-88
2022/06/14 01:28:44;;;;;;;;;;;;;;;19.95;49.56;99427.28;4505432;31;33130;-89
2022/06/14 01:31:11;;;;;;;;;;;;;;;19.43;51.02;99429.19;4500726;31;33852;-92
2022/06/14 01:33:43;;;;;;;;;;;;;;;19.68;50.42;99428.72;4489005;31;35032;-85
2022/06/14 01:36:16;;;;;;;;;;;;;;;20.18;49.25;99424.13;4498934;31;33496;-88
2022/06/14 01:38:44;;;;;;;;;;;;;;;20.61;48.41;99429.34;4502407;31;33322;-85
2022/06/14 01:41:11;;;;;;;;;;;;;;;20.74;47.53;99440.44;4491972;31;33872;-87
2022/06/14 01:43:41;;;;;;;;;;;;;;;20.64;47.73;99449.44;4493345;31;34129;-87
2022/06/14 01:46:18;;;;;;;;;;;;;;;21.19;46.32;99441.97;4498385;31;33474;-90
2022/06/14 01:48:47;;;;;;;;;;;;;;;21.45;45.46;99447.44;4507902;31;34194;-89
2022/06/14 01:54:03;;;;;;;;;;;;;;;21.86;44.54;99454.22;4501075;31;34480;-84
2022/06/14 01:56:34;;;;;;;;;;;;;;;21.62;45.04;99458.38;4498368;31;35054;-86
2022/06/14 01:59:22;;;;;;;;;;;;;;;21.91;44.62;99453.22;4498251;31;34541;-91
2022/06/14 02:01:55;;;;;;;;;;;;;;;22.15;43.81;99465.72;4495347;31;34238;-85
2022/06/14 02:04:41;;;;;;;;;;;;;;;22.57;42.87;99455.59;4492819;31;34369;-89
2022/06/14 02:07:20;;;;;;;;;;;;;;;21.43;45.34;99459.78;4506601;31;34237;-85
2022/06/14 02:10:08;;;;;;;;;;;;;;;20.48;47.56;99471.75;4496489;31;34180;-90
2022/06/14 02:12:39;;;;;;;;;;;;;;;19.47;50.46;99471.16;4498180;31;34072;-86
2022/06/14 02:15:06;;;;;;;;;;;;;;;19.81;49.59;99453.88;4500675;31;35364;-84
2022/06/14 02:17:39;;;;;;;;;;;;;;;19.67;49.91;99458.56;4501777;31;33978;-91
2022/06/14 02:20:28;;;;;;;;;;;;;;;18.81;52.32;99456.53;4509239;31;33261;-91
2022/06/14 02:22:58;;;;;;;;;;;;;;;19.92;49.52;99449.25;4499817;31;34275;-85
2022/06/14 02:25:31;;;;;;;;;;;;;;;19.50;50.48;99460.59;4497455;31;34356;-91
2022/06/14 02:28:03;;;;;;;;;;;;;;;20.00;49.24;99456.12;4504258;31;35004;-90
2022/06/14 02:30:32;;;;;;;;;;;;;;;20.53;47.95;99452.37;4498974;31;33400;-90
2022/06/14 02:33:07;;;;;;;;;;;;;;;21.00;46.61;99458.25;4497039;31;34284;-84
2022/06/14 02:35:36;;;;;;;;;;;;;;;20.68;46.94;99459.00;4505712;31;35296;-90
2022/06/14 02:38:08;;;;;;;;;;;;;;;20.18;48.63;99458.38;4506531;31;34155;-84
2022/06/14 02:40:39;;;;;;;;;;;;;;;21.48;45.63;99462.28;4488384;31;33064;-90
2022/06/14 02:43:09;;;;;;;;;;;;;;;20.35;48.05;99469.41;4493135;31;34670;-85
2022/06/14 02:45:42;;;;;;;;;;;;;;;21.05;46.20;99468.66;4505124;31;35683;-89
2022/06/14 02:48:26;;;;;;;;;;;;;;;20.68;47.11;99472.19;4501084;31;34554;-90
2022/06/14 02:50:59;;;;;;;;;;;;;;;21.30;45.65;99469.78;4484912;31;33630;-89
2022/06/14 02:53:32;;;;;;;;;;;;;;;20.83;46.51;99476.22;4508250;31;34341;-90
2022/06/14 02:56:10;;;;;;;;;;;;;;;20.57;47.18;99485.63;4512845;31;35438;-85
2022/06/14 02:58:39;;;;;;;;;;;;;;;20.89;46.36;99481.34;4497830;31;33792;-89
2022/06/14 03:01:26;;;;;;;;;;;;;;;21.15;45.75;99483.34;4503581;31;33784;-89
2022/06/14 03:03:58;;;;;;;;;;;;;;;20.37;47.56;99488.66;4511871;31;33931;-92
2022/06/14 03:06:28;;;;;;;;;;;;;;;19.11;50.87;99484.94;4509818;31;35359;-89
2022/06/14 03:08:57;;;;;;;;;;;;;;;19.93;48.85;99479.94;4506712;31;34963;-85
2022/06/14 03:11:27;;;;;;;;;;;;;;;19.91;48.87;99473.84;4502192;31;33098;-88
2022/06/14 03:14:10;;;;;;;;;;;;;;;20.07;48.47;99478.78;4483886;32;34271;-91
2022/06/14 03:16:42;;;;;;;;;;;;;;;19.81;49.21;99488.09;4491284;31;33709;-85
2022/06/14 03:19:16;;;;;;;;;;;;;;;20.94;46.43;99486.50;4498270;31;33870;-88
2022/06/14 03:21:47;;;;;;;;;;;;;;;20.79;46.80;99485.09;4499438;31;34288;-84
2022/06/14 03:24:33;;;;;;;;;;;;;;;21.58;44.65;99477.84;4496235;31;34344;-90
2022/06/14 03:27:03;;;;;;;;;;;;;;;20.45;47.32;99485.84;4498408;31;34952;-92
2022/06/14 03:29:39;;;;;;;;;;;;;;;19.89;49.04;99490.56;4500735;31;34397;-85
2022/06/14 03:32:09;;;;;;;;;;;;;;;20.36;48.10;99497.47;4499445;31;33418;-91
2022/06/14 03:34:43;;;;;;;;;;;;;;;20.29;48.40;99498.50;4496399;31;34194;-90
2022/06/14 03:37:10;;;;;;;;;;;;;;;20.41;47.95;99499.97;4494250;31;34543;-86
2022/06/14 03:39:39;;;;;;;;;;;;;;;19.98;48.85;99495.63;4482702;31;35507;-84
2022/06/14 03:42:08;;;;;;;;;;;;;;;19.25;50.90;99497.84;4486897;31;33722;-85
2022/06/14 03:44:36;;;;;;;;;;;;;;;19.79;49.56;99489.87;4489324;31;32567;-89
2022/06/14 03:47:06;;;;;;;;;;;;;;;19.47;50.63;99497.47;4497592;31;35039;-87
2022/06/14 03:49:33;;;;;;;;;;;;;;;20.53;47.86;99504.16;4499206;31;34133;-88
2022/06/14 03:52:21;;;;;;;;;;;;;;;21.91;44.35;99495.44;4502272;31;34094;-90
2022/06/14 03:55:09;;;;;;;;;;;;;;;22.11;44.13;99498.37;4478264;31;33737;-89
2022/06/14 03:57:58;;;;;;;;;;;;;;;21.19;45.79;99508.75;4500530;31;33766;-88
2022/06/14 04:00:25;;;;;;;;;;;;;;;21.71;45.11;99512.69;4491484;31;34319;-84
2022/06/14 04:03:08;;;;;;;;;;;;;;;21.05;46.28;99513.47;4490183;31;34134;-84
2022/06/14 04:05:39;;;;;;;;;;;;;;;21.30;45.67;99517.25;4484207;31;33698;-90
2022/06/14 04:08:10;;;;;;;;;;;;;;;21.83;44.52;99509.72;4492487;31;34601;-89
2022/06/14 04:10:39;;;;;;;;;;;;;;;22.22;43.82;99506.88;4495530;31;34969;-87
2022/06/14 04:13:09;;;;;;;;;;;;;;;23.09;42.09;99511.25;4497913;31;33215;-91
2022/06/14 04:15:38;;;;;;;;;;;;;;;22.51;42.79;99513.94;4498910;31;34411;-91
2022/06/14 04:21:00;;;;;;;;;;;;;;;21.05;46.43;99534.56;4508129;31;34240;-91
2022/06/14 04:23:31;;;;;;;;;;;;;;;21.59;45.02;99521.81;4498079;31;33438;-88
2022/06/14 04:26:01;;;;;;;;;;;;;;;20.95;46.42;99535.69;4499271;31;34205;-88
2022/06/14 04:28:40;;;;;;;;;;;;;;;21.98;44.50;99526.91;4482603;31;34799;-89
2022/06/14 04:31:15;;;;;;;;;;;;;;;22.10;44.24;99528.31;4494558;31;34446;-90
2022/06/14 04:33:46;;;;;;;;;;;;;;;22.64;43.23;99535.56;4497444;31;33404;-90
2022/06/14 04:36:27;;;;;;;;;;;;;;;22.92;42.58;99534.72;4498549;31;34002;-89
2022/06/14 04:39:27;;;;;;;;;;;;;;;21.64;45.36;99550.72;4498320;31;34596;-87
2022/06/14 04:42:08;;;;;;;;;;;;;;;21.09;46.83;99547.62;4477567;31;35131;-86
2022/06/14 04:44:39;;;;;;;;;;;;;;;20.76;47.63;99554.56;4513264;31;32711;-91
2022/06/14 04:47:09;;;;;;;;;;;;;;;21.05;47.24;99553.03;4507390;31;33799;-91
2022/06/14 04:49:40;;;;;;;;;;;;;;;21.50;46.31;99558.09;4497648;31;35183;-87
2022/06/14 04:52:16;;;;;;;;;;;;;;;21.93;45.28;99563.09;4496434;31;34642;-90
2022/06/14 04:54:52;;;;;;;;;;;;;;;22.41;44.22;99557.38;4483535;31;32973;-88
2022/06/14 04:57:21;;;;;;;;;;;;;;;21.26;46.79;99572.75;4494991;31;34123;-89
2022/06/14 04:59:52;;;;;;;;;;;;;;;22.11;45.42;99561.75;4489123;31;34406;-89
2022/06/14 05:02:22;;;;;;;;;;;;;;;22.85;43.57;99562.25;4498899;31;34960;-89
2022/06/14 05:04:54;;;;;;;;;;;;;;;23.17;42.99;99570.06;4499075;31;33455;-90
2022/06/14 05:07:27;;;;;;;;;;;;;;;21.89;45.30;99572.00;4487570;31;35267;-87
2022/06/14 05:10:02;;;;;;;;;;;;;;;22.43;44.52;99571.44;4481781;32;34366;-92
2022/06/14 05:12:45;;;;;;;;;;;;;;;22.85;43.99;99578.97;4481903;32;34413;-85
2022/06/14 05:15:24;;;;;;;;;;;;;;;23.42;42.74;99579.84;4506404;31;33483;-87
2022/06/14 05:17:55;;;;;;;;;;;;;;;22.41;43.96;99585.59;4512892;31;34150;-87
2022/06/14 05:20:29;;;;;;;;;;;;;;;23.71;41.41;99585.03;4513244;31;34242;-89
2022/06/14 05:23:03;;;;;;;;;;;;;;;22.75;44.09;99586.31;4500676;31;34170;-87
2022/06/14 05:25:51;;;;;;;;;;;;;;;22.70;43.56;99588.25;4498317;31;33417;-87
2022/06/14 05:28:38;;;;;;;;;;;;;;;23.38;42.66;99594.09;4452662;31;34169;-88
2022/06/14 05:31:15;;;;;;;;;;;;;;;23.57;41.90;99587.28;4481416;32;35057;-89
2022/06/14 05:33:42;;;;;;;;;;;;;;;24.27;40.72;99579.50;4482855;32;34115;-90
2022/06/14 05:36:21;;;;;;;;;;;;;;;24.66;40.21;99583.41;4487225;31;33331;-88
2022/06/14 05:38:51;;;;;;;;;;;;;;;23.75;41.70;99589.34;4487354;31;34169;-89
2022/06/14 05:41:22;;;;;;;;;;;;;;;25.08;39.29;99583.53;4483037;32;35397;-87
2022/06/14 05:43:50;;;;;;;;;;;;;;;25.47;38.48;99580.22;4505185;31;34238;-87
2022/06/14 05:46:35;;;;;;;;;;;;;;;25.28;39.32;99582.75;4513164;31;34180;-87
2022/06/14 05:49:07;;;;;;;;;;;;;;;25.87;37.98;99581.19;4486034;31;34365;-91
2022/06/14 05:51:40;;;;;;;;;;;;;;;25.80;37.83;99587.69;4484544;32;35316;-87
2022/06/14 05:54:13;;;;;;;;;;;;;;;24.15;41.03;99582.63;4483082;32;34361;-87
2022/06/14 05:57:07;;;;;;;;;;;;;;;24.42;40.46;99582.56;4483489;32;33056;-91
2022/06/14 05:59:48;;;;;;;;;;;;;;;24.24;40.86;99592.00;4471254;31;34835;-90
2022/06/14 06:02:15;;;;;;;;;;;;;;;24.78;38.93;99592.72;4483240;32;34145;-86
2022/06/14 06:05:08;;;;;;;;;;;;;;;23.99;40.75;99594.69;4493252;31;35106;-91
2022/06/14 06:07:37;;;;;;;;;;;;;;;23.97;40.71;99589.44;4497467;31;34036;-88
2022/06/14 06:10:13;;;;;;;;;;;;;;;22.92;43.12;99606.09;4485033;31;33882;-86
2022/06/14 06:12:41;;;;;;;;;;;;;;;24.25;40.69;99599.06;4483467;32;35231;-87
2022/06/14 06:15:09;;;;;;;;;;;;;;;24.81;39.31;99600.53;4482684;32;34389;-88
2022/06/14 06:17:38;;;;;;;;;;;;;;;25.38;38.81;99604.47;4484620;32;33792;-89
2022/06/14 06:20:06;;;;;;;;;;;;;;;26.49;36.06;99603.31;4493014;31;34929;-88
2022/06/14 06:22:34;;;;;;;;;;;;;;;25.51;37.07;99611.00;4500233;31;35061;-89
2022/06/14 06:25:09;;;;;;;;;;;;;;;25.78;37.35;99616.09;4499095;31;34399;-87
2022/06/14 06:27:39;;;;;;;;;;;;;;;25.88;37.89;99609.50;4500151;31;33249;-89
2022/06/14 06:30:14;;;;;;;;;;;;;;;25.95;37.00;99616.28;4490189;31;33976;-90
2022/06/14 06:32:42;;;;;;;;;;;;;;;24.76;39.63;99609.53;4496136;31;34159;-88
2022/06/14 06:35:09;;;;;;;;;;;;;;;25.28;38.36;99622.56;4498807;31;33963;-90
2022/06/14 06:37:37;;;;;;;;;;;;;;;25.05;39.24;99615.50;4499115;31;33149;-88
2022/06/14 06:40:06;;;;;;;;;;;;;;;25.32;39.20;99620.66;4498633;31;34218;-90
2022/06/14 06:42:40;;;;;;;;;;;;;;;24.95;39.82;99622.06;4499209;31;34832;-87
2022/06/14 06:45:07;;;;;;;;;;;;;;;25.58;38.73;99625.75;4500052;31;34456;-89
2022/06/14 06:47:43;;;;;;;;;;;;;;;25.99;37.44;99628.50;4499962;31;33271;-86
2022/06/14 06:50:22;;;;;;;;;;;;;;;26.90;35.53;99623.53;4499653;31;35774;-87
2022/06/14 06:52:52;;;;;;;;;;;;;;;26.57;34.63;99633.91;4490077;31;34472;-86
2022/06/14 06:55:27;;;;;;;;;;;;;;;26.64;35.35;99637.16;4487609;31;33630;-87
2022/06/14 06:57:55;;;;;;;;;;;;;;;25.22;36.11;99634.28;4480567;31;33455;-91
2022/06/14 07:00:23;;;;;;;;;;;;;;;26.62;34.62;99628.37;4483045;32;33716;-87
2022/06/14 07:02:51;;;;;;;;;;;;;;;26.33;35.81;99627.00;4482909;31;34889;-84
2022/06/14 07:05:18;;;;;;;;;;;;;;;26.52;36.18;99625.28;4489962;31;34440;-87
2022/06/14 07:07:46;;;;;;;;;;;;;;;25.36;36.88;99635.53;4483849;32;33491;-87
2022/06/14 07:10:13;;;;;;;;;;;;;;;26.07;36.55;99630.81;4483982;32;35162;-85
2022/06/14 07:12:44;;;;;;;;;;;;;;;26.42;35.87;99618.63;4501510;31;34113;-88
2022/06/14 07:15:21;;;;;;;;;;;;;;;26.03;36.85;99627.44;4515196;31;34724;-86
2022/06/14 07:17:51;;;;;;;;;;;;;;;25.98;36.10;99633.88;4515613;31;32541;-86
2022/06/14 07:20:30;;;;;;;;;;;;;;;25.69;37.04;99633.28;4515959;31;35078;-88
2022/06/14 07:23:18;;;;;;;;;;;;;;;26.16;36.44;99631.28;4512038;31;34027;-87
2022/06/14 07:25:49;;;;;;;;;;;;;;;26.10;35.68;99636.88;4515414;31;34130;-86
2022/06/14 07:28:35;;;;;;;;;;;;;;;26.82;34.56;99623.03;4485428;31;34171;-85
2022/06/14 07:31:07;;;;;;;;;;;;;;;26.38;35.19;99627.66;4483540;32;34277;-84
2022/06/14 07:33:35;;;;;;;;;;;;;;;26.86;34.48;99631.72;4482744;32;34926;-87
2022/06/14 07:36:13;;;;;;;;;;;;;;;26.98;34.17;99627.63;4502563;31;34195;-87
2022/06/14 07:38:47;;;;;;;;;;;;;;;27.31;32.70;99626.00;4505924;31;33262;-86
2022/06/14 07:41:14;;;;;;;;;;;;;;;26.81;34.61;99623.06;4514014;31;35108;-86
2022/06/14 07:44:00;;;;;;;;;;;;;;;27.37;33.79;99627.53;4515310;31;34506;-86
2022/06/14 07:46:32;;;;;;;;;;;;;;;28.13;32.40;99631.66;4483613;32;35033;-88
2022/06/14 07:49:04;;;;;;;;;;;;;;;27.16;33.07;99626.75;4506795;31;33169;-87
2022/06/14 07:51:33;;;;;;;;;;;;;;;26.53;33.27;99624.34;4508290;31;33720;-94
2022/06/14 07:54:03;;;;;;;;;;;;;;;25.87;34.94;99636.97;4486306;31;34396;-86
2022/06/14 07:56:54;;;;;;;;;;;;;;;26.42;34.51;99630.13;4482201;32;33725;-84
2022/06/14 07:59:27;;;;;;;;;;;;;;;28.06;31.92;99634.72;4483548;32;34435;-90
2022/06/14 08:01:56;;;;;;;;;;;;;;;26.50;32.32;99628.94;4496582;31;34953;-88
2022/06/14 08:04:26;;;;;;;;;;;;;;;27.79;30.98;99627.22;4488396;31;35318;-88
2022/06/14 08:06:55;;;;;;;;;;;;;;;26.77;31.55;99625.00;4506731;31;34943;-83
2022/06/14 08:09:42;;;;;;;;;;;;;;;26.28;31.37;99621.03;4514279;31;33043;-92
2022/06/14 08:12:20;;;;;;;;;;;;;;;26.43;31.31;99625.66;4503616;31;33995;-91
2022/06/14 08:14:50;;;;;;;;;;;;;;;26.43;31.04;99628.31;4498544;31;35136;-94
2022/06/14 08:17:19;;;;;;;;;;;;;;;26.45;31.53;99629.13;4485790;31;35025;-90
2022/06/14 08:19:49;;;;;;;;;;;;;;;27.30;29.10;99626.09;4496679;31;33040;-89
2022/06/14 08:22:17;;;;;;;;;;;;;;;27.37;28.48;99619.53;4499039;31;34025;-86
2022/06/14 08:24:45;;;;;;;;;;;;;;;26.88;29.04;99627.19;4497735;31;33984;-89
2022/06/14 08:27:23;;;;;;;;;;;;;;;26.94;28.47;99629.56;4498017;31;33942;-88
2022/06/14 08:29:51;;;;;;;;;;;;;;;27.95;28.31;99624.62;4489259;31;33351;-87
2022/06/14 08:32:39;;;;;;;;;;;;;;;28.80;26.61;99621.06;4484399;31;34107;-86
2022/06/14 08:35:15;;;;;;;;;;;;;;;27.06;26.73;99628.97;4492767;31;35130;-86
2022/06/14 08:37:54;;;;;;;;;;;;;;;26.92;28.37;99626.09;4494882;31;33744;-87
2022/06/14 08:40:40;;;;;;;;;;;;;;;27.30;27.29;99616.31;4489473;31;32871;-88
2022/06/14 08:43:08;;;;;;;;;;;;;;;27.79;27.13;99626.34;4487667;31;35199;-88
2022/06/14 08:45:45;;;;;;;;;;;;;;;27.25;26.98;99615.69;4487122;31;34907;-88
2022/06/14 08:48:25;;;;;;;;;;;;;;;27.16;28.80;99627.66;4486970;31;35294;-93
2022/06/14 08:50:56;;;;;;;;;;;;;;;26.60;26.80;99609.84;4512441;31;33326;-88
2022/06/14 08:53:39;;;;;;;;;;;;;;;27.35;26.50;99619.63;4505567;31;34340;-84
2022/06/14 08:56:08;;;;;;;;;;;;;;;27.36;27.33;99620.47;4501503;31;34528;-88
2022/06/14 08:59:08;;;;;;;;;;;;;;;26.52;27.87;99621.75;4493433;31;34564;-84
2022/06/14 09:01:38;;;;;;;;;;;;;;;26.24;30.10;99624.75;4463946;31;33386;-88
2022/06/14 09:04:05;;;;;;;;;;;;;;;27.00;28.36;99625.72;4499004;31;33885;-87
2022/06/14 09:06:37;;;;;;;;;;;;;;;25.95;28.94;99624.25;4507098;31;34928;-94
2022/06/14 09:09:20;;;;;;;;;;;;;;;25.82;29.09;99636.31;4496994;31;33861;-86
2022/06/14 09:12:02;;;;;;;;;;;;;;;26.62;29.03;99623.06;4482955;32;33190;-87
2022/06/14 09:14:43;;;;;;;;;;;;;;;28.04;27.23;99621.50;4485312;31;33875;-84
2022/06/14 09:17:20;;;;;;;;;;;;;;;28.11;27.30;99638.91;4497525;31;34402;-87
2022/06/14 09:20:24;;;;;;;;;;;;;;;27.40;24.61;99617.59;4498083;31;33633;-89
2022/06/14 09:23:03;;;;;;;;;;;;;;;27.77;25.00;99622.91;4496117;31;33285;-87
2022/06/14 09:26:03;;;;;;;;;;;;;;;26.72;26.05;99615.53;4498500;31;33832;-86
2022/06/14 09:28:44;;;;;;;;;;;;;;;27.09;26.26;99615.53;4497615;31;34771;-84
2022/06/14 09:31:18;;;;;;;;;;;;;;;26.51;27.06;99612.91;4497304;31;33883;-88
2022/06/14 09:33:49;;;;;;;;;;;;;;;26.53;25.83;99613.72;4489314;31;34269;-84
2022/06/14 09:36:19;;;;;;;;;;;;;;;26.53;26.30;99616.38;4482669;32;34891;-86
2022/06/14 09:38:49;;;;;;;;;;;;;;;27.26;25.31;99608.56;4482656;32;33988;-87
2022/06/14 09:41:20;;;;;;;;;;;;;;;26.62;26.61;99609.75;4482407;32;33680;-86
2022/06/14 09:43:53;;;;;;;;;;;;;;;27.15;25.37;99617.06;4493987;31;33943;-85
2022/06/14 09:46:50;;;;;;;;;;;;;;;26.85;24.80;99611.34;4501679;31;34604;-83
2022/06/14 09:49:37;;;;;;;;;;;;;;;27.45;24.99;99611.16;4444139;31;35320;-89
2022/06/14 09:52:05;;;;;;;;;;;;;;;26.35;26.72;99595.91;4498185;31;34849;-89
2022/06/14 09:54:38;;;;;;;;;;;;;;;26.64;26.40;99606.13;4498206;31;33986;-87
2022/06/14 09:57:34;;;;;;;;;;;;;;;26.07;24.73;99602.47;4481361;32;33973;-84
2022/06/14 10:00:07;;;;;;;;;;;;;;;26.77;25.20;99602.88;4458825;31;33898;-88
2022/06/14 10:02:40;;;;;;;;;;;;;;;26.37;26.54;99615.31;4482326;32;35098;-88
2022/06/14 10:05:08;;;;;;;;;;;;;;;26.09;25.63;99605.03;4489915;31;33521;-83
2022/06/14 10:07:54;;;;;;;;;;;;;;;26.47;25.09;99599.84;4513864;31;34144;-84
2022/06/14 10:10:30;;;;;;;;;;;;;;;26.91;23.29;99600.44;4514333;31;34460;-84
2022/06/14 10:13:10;;;;;;;;;;;;;;;26.78;25.06;99600.13;4495125;31;34197;-83
2022/06/14 10:15:46;;;;;;;;;;;;;;;26.74;26.94;99605.66;4482201;32;33252;-82
2022/06/14 10:18:26;;;;;;;;;;;;;;;26.86;25.50;99613.09;4482192;32;34214;-82
2022/06/14 10:20:54;;;;;;;;;;;;;;;27.31;25.52;99603.84;4480716;32;34288;-86
2022/06/14 10:23:31;;;;;;;;;;;;;;;27.76;24.10;99594.53;4502619;31;34307;-87
2022/06/14 10:29:15;;;;;;;;;;;;;;;27.57;24.05;99594.56;4503559;31;35024;-92
2022/06/14 10:31:45;;;;;;;;;;;;;;;27.27;26.17;99603.13;4504647;31;34795;-83
2022/06/14 10:34:12;;;;;;;;;;;;;;;26.34;25.15;99595.03;4513255;31;35323;-82
2022/06/14 10:36:51;;;;;;;;;;;;;;;26.86;25.41;99587.34;4515730;31;34332;-83
2022/06/14 10:39:28;;;;;;;;;;;;;;;27.44;25.77;99594.34;4504383;31;34931;-90
2022/06/14 10:42:14;;;;;;;;;;;;;;;26.69;26.83;99590.78;4499664;31;34515;-87
2022/06/14 10:44:59;;;;;;;;;;;;;;;26.40;26.97;99589.47;4499732;31;34438;-88
2022/06/14 10:47:43;;;;;;;;;;;;;;;26.42;26.92;99589.37;4499715;31;33460;-89
2022/06/14 10:50:11;;;;;;;;;;;;;;;26.81;27.20;99584.03;4505390;31;34931;-85
2022/06/14 10:52:41;;;;;;;;;;;;;;;26.91;26.44;99579.16;4514263;31;34304;-83
2022/06/14 10:55:18;;;;;;;;;;;;;;;27.73;25.33;99579.56;4514225;31;34154;-85
2022/06/14 10:57:45;;;;;;;;;;;;;;;27.76;24.87;99583.88;4515929;31;33356;-86
2022/06/14 11:00:16;;;;;;;;;;;;;;;28.19;24.84;99579.00;4515802;31;34391;-90
2022/06/14 11:02:47;;;;;;;;;;;;;;;27.83;24.45;99570.16;4507896;31;34460;-83
2022/06/14 11:05:33;;;;;;;;;;;;;;;27.79;24.65;99565.06;4483933;32;33766;-84
2022/06/14 11:08:16;;;;;;;;;;;;;;;27.48;24.52;99574.59;4483897;32;33432;-82
2022/06/14 11:10:44;;;;;;;;;;;;;;;26.90;27.28;99569.44;4482715;32;34239;-90
2022/06/14 11:13:26;;;;;;;;;;;;;;;27.40;27.19;99567.00;4496023;31;34530;-88
2022/06/14 11:16:06;;;;;;;;;;;;;;;27.42;27.46;99577.56;4515812;31;35020;-87
2022/06/14 11:18:42;;;;;;;;;;;;;;;27.15;28.08;99574.47;4515513;31;33894;-86
2022/06/14 11:21:15;;;;;;;;;;;;;;;27.22;27.25;99585.69;4515749;31;34869;-86
2022/06/14 11:23:45;;;;;;;;;;;;;;;27.68;27.11;99583.38;4496083;31;35169;-87
2022/06/14 11:26:18;;;;;;;;;;;;;;;27.47;26.17;99572.88;4482562;31;34530;-86
2022/06/14 11:29:04;;;;;;;;;;;;;;;27.60;26.31;99578.44;4483862;32;34538;-84
2022/06/14 11:31:41;;;;;;;;;;;;;;;27.46;27.75;99584.44;4484070;32;34243;-89
2022/06/14 11:34:17;;;;;;;;;;;;;;;27.71;27.04;99581.44;4515053;31;34213;-83
2022/06/14 11:37:07;;;;;;;;;;;;;;;27.39;28.02;99575.06;4497368;31;33712;-82
2022/06/14 11:39:37;;;;;;;;;;;;;;;27.19;26.14;99581.34;4498874;31;34150;-84
2022/06/14 11:42:10;;;;;;;;;;;;;;;27.64;25.77;99574.69;4498413;31;33882;-86
2022/06/14 11:44:47;;;;;;;;;;;;;;;27.33;26.87;99578.03;4486936;31;34041;-83
2022/06/14 11:47:19;;;;;;;;;;;;;;;26.44;28.00;99579.53;4501835;31;34205;-84
2022/06/14 11:50:05;;;;;;;;;;;;;;;27.63;25.79;99578.28;4483029;31;32932;-83
2022/06/14 11:52:47;;;;;;;;;;;;;;;28.36;25.38;99573.59;4483651;32;34084;-83
2022/06/14 11:55:20;;;;;;;;;;;;;;;26.89;26.77;99576.53;4482141;32;35141;-84
2022/06/14 11:58:26;;;;;;;;;;;;;;;26.64;28.84;99586.62;4483504;31;34970;-82
2022/06/14 12:00:59;;;;;;;;;;;;;;;26.85;28.43;99582.94;4434540;32;33834;-81
2022/06/14 12:03:26;;;;;;;;;;;;;;;27.20;27.78;99590.19;4435886;32;33865;-82
2022/06/14 12:05:55;;;;;;;;;;;;;;;27.28;28.28;99585.41;4477689;31;34843;-85
2022/06/14 12:08:44;;;;;;;;;;;;;;;27.11;27.52;99587.06;4492295;31;34222;-85
2022/06/14 12:11:17;;;;;;;;;;;;;;;27.58;27.42;99586.53;4493177;31;32666;-85
2022/06/14 12:13:51;;;;;;;;;;;;;;;28.04;27.98;99580.66;4500574;31;34019;-86
2022/06/14 12:16:42;;;;;;;;;;;;;;;28.48;26.64;99572.97;4497212;31;35472;-87
2022/06/14 12:19:23;;;;;;;;;;;;;;;28.74;26.57;99573.34;4491163;31;34122;-84
2022/06/14 12:22:00;;;;;;;;;;;;;;;27.40;26.85;99566.13;4496445;31;34003;-85
2022/06/14 12:27:19;;;;;;;;;;;;;;;27.45;26.61;99561.44;4483661;32;33909;-83
2022/06/14 12:29:49;;;;;;;;;;;;;;;28.05;24.27;99558.37;4487808;31;34829;-85
2022/06/14 12:32:23;;;;;;;;;;;;;;;27.77;25.31;99556.28;4482159;31;33134;-86
2022/06/14 12:34:53;;;;;;;;;;;;;;;28.41;25.28;99555.56;4485027;31;34921;-87
2022/06/14 12:37:26;;;;;;;;;;;;;;;27.85;25.18;99551.44;4505374;31;35122;-87
2022/06/14 12:39:59;;;;;;;;;;;;;;;27.43;26.61;99560.66;4500785;31;35098;-85
2022/06/14 12:42:47;;;;;;;;;;;;;;;26.73;28.26;99558.75;4499729;31;34250;-86
2022/06/14 12:45:16;;;;;;;;;;;;;;;26.41;27.75;99555.75;4458523;31;33900;-86
2022/06/14 12:47:46;;;;;;;;;;;;;;;26.97;26.83;99564.69;4505685;31;34043;-85
2022/06/14 12:50:23;;;;;;;;;;;;;;;27.32;26.72;99560.34;4506649;31;33753;-90
2022/06/14 12:52:53;;;;;;;;;;;;;;;25.70;27.42;99561.50;4498364;31;33327;-83
2022/06/14 12:55:26;;;;;;;;;;;;;;;26.61;26.58;99555.72;4489837;31;33748;-85
2022/06/14 12:58:12;;;;;;;;;;;;;;;26.25;27.77;99562.69;4497973;31;34245;-85
2022/06/14 13:00:41;;;;;;;;;;;;;;;26.93;26.87;99562.19;4507760;31;33945;-84
2022/06/14 13:03:27;;;;;;;;;;;;;;;26.35;27.85;99548.06;4485294;31;32722;-88
2022/06/14 13:05:57;;;;;;;;;;;;;;;26.44;27.00;99536.97;4499492;31;34162;-89
2022/06/14 13:08:28;;;;;;;;;;;;;;;26.96;27.11;99531.88;4497589;31;33936;-89
2022/06/14 13:11:15;;;;;;;;;;;;;;;26.03;27.58;99537.09;4505281;31;34370;-88
2022/06/14 13:14:01;;;;;;;;;;;;;;;26.81;28.22;99541.47;4483165;32;33431;-89
2022/06/14 13:16:47;;;;;;;;;;;;;;;26.50;27.69;99534.09;4497981;31;33389;-85
2022/06/14 13:19:20;;;;;;;;;;;;;;;26.53;27.41;99531.28;4483066;32;35133;-88
2022/06/14 13:21:57;;;;;;;;;;;;;;;27.49;27.91;99530.19;4497973;31;34886;-84
2022/06/14 13:24:43;;;;;;;;;;;;;;;26.86;27.53;99533.28;4514778;31;33167;-89
2022/06/14 13:27:19;;;;;;;;;;;;;;;26.27;27.07;99532.47;4514736;31;33400;-88
2022/06/14 13:30:05;;;;;;;;;;;;;;;27.63;26.12;99528.53;4506627;31;34334;-88
2022/06/14 13:32:51;;;;;;;;;;;;;;;27.86;27.11;99523.84;4498461;31;34917;-88
2022/06/14 13:35:31;;;;;;;;;;;;;;;27.24;26.55;99518.13;4498474;31;33097;-84
2022/06/14 13:38:00;;;;;;;;;;;;;;;28.00;26.29;99513.34;4498748;31;34961;-83